Time;durP1;ratioP1;P1;durP2;ratioP2;P2;SDS_P1;SDS_P2;PMS_P1;PMS_P2;Temp;Humidity;BMP_temperature;BMP_pressure;BME280_temperature;BME280_humidity;BME280_pressure;Samples;Min_cycle;Max_cycle;Signal;HPM_P1;HPM_P2
2022/07/08 00:00:27;;;;;;;5.60;3.30;;;;;;;17.26;58.30;98872.08;434150;1267;99270;-41
2022/07/08 00:10:43;;;;;;;5.90;3.70;;;;;;;17.05;58.67;98880.29;434186;1268;112480;-42
2022/07/08 00:20:50;;;;;;;5.10;3.60;;;;;;;16.86;59.15;98883.67;434137;1267;108851;-44
2022/07/08 00:30:57;;;;;;;6.30;3.20;;;;;;;16.74;59.51;98878.84;434048;1268;97959;-43
2022/07/08 00:41:03;;;;;;;5.60;2.60;;;;;;;16.72;59.96;98881.49;433925;1268;108315;-40
2022/07/08 00:51:13;;;;;;;6.80;3.30;;;;;;;16.72;60.52;98888.60;434087;1266;99267;-42
2022/07/08 01:11:28;;;;;;;3.60;2.50;;;;;;;16.60;60.91;98888.02;438728;1255;108641;-41
2022/07/08 01:21:35;;;;;;;2.90;2.50;;;;;;;16.63;61.26;98894.23;447821;1267;95808;-41
2022/07/08 01:31:42;;;;;;;5.00;3.30;;;;;;;16.67;61.55;98906.90;447813;1265;112605;-41
2022/07/08 01:41:50;;;;;;;6.80;4.60;;;;;;;16.68;61.76;98912.14;447929;1267;108709;-41
2022/07/08 01:51:57;;;;;;;4.30;3.30;;;;;;;16.67;62.02;98913.26;447819;1267;109251;-41
2022/07/08 02:02:04;;;;;;;6.40;4.00;;;;;;;16.70;62.26;98914.45;447823;1267;96070;-41
2022/07/08 02:12:25;;;;;;;6.00;4.60;;;;;;;16.71;62.50;98918.35;447890;1267;96024;-41
2022/07/08 02:22:32;;;;;;;6.90;4.80;;;;;;;16.70;62.80;98924.91;447819;1267;111842;-42
2022/07/08 02:32:39;;;;;;;6.20;4.00;;;;;;;16.66;62.99;98925.64;447859;1267;109094;-42
2022/07/08 02:42:46;;;;;;;7.00;4.70;;;;;;;16.71;63.23;98930.20;447815;1267;108747;-42
2022/07/08 02:52:53;;;;;;;6.60;4.80;;;;;;;16.78;63.44;98936.69;447820;1267;95818;-41
2022/07/08 03:03:00;;;;;;;6.20;4.40;;;;;;;16.82;63.77;98939.27;447848;1265;95993;-42
2022/07/08 03:13:06;;;;;;;5.40;4.50;;;;;;;16.73;63.94;98950.92;447893;1267;111486;-42
2022/07/08 03:23:14;;;;;;;4.70;3.60;;;;;;;16.67;64.06;98968.79;447783;1267;108837;-41
2022/07/08 03:33:21;;;;;;;7.50;4.20;;;;;;;16.64;64.15;98979.06;447746;1267;108706;-42
2022/07/08 03:43:28;;;;;;;6.10;4.50;;;;;;;16.71;64.34;98988.84;447791;1266;95680;-41
2022/07/08 03:53:34;;;;;;;5.40;4.60;;;;;;;16.79;64.72;98997.36;447760;1266;95808;-42
2022/07/08 04:03:41;;;;;;;8.70;5.50;;;;;;;16.87;64.95;99006.11;447755;1267;112501;-42
2022/07/08 04:13:48;;;;;;;8.10;3.90;;;;;;;16.98;65.00;99015.98;447773;1266;108785;-41
2022/07/08 04:23:58;;;;;;;7.60;3.90;;;;;;;17.21;64.84;99025.62;447769;1266;108972;-42
2022/07/08 04:34:05;;;;;;;6.40;5.10;;;;;;;17.41;65.00;99027.00;447777;1267;95995;-42
2022/07/08 04:44:12;;;;;;;6.70;5.90;;;;;;;17.58;65.13;99034.80;447842;1267;96141;-42
2022/07/08 04:54:19;;;;;;;5.80;4.60;;;;;;;17.84;65.09;99046.46;447704;1267;112402;-42
2022/07/08 05:04:26;;;;;;;6.00;5.00;;;;;;;18.08;64.87;99050.54;447767;1266;108775;-42
2022/07/08 05:14:33;;;;;;;7.70;5.20;;;;;;;18.22;64.81;99066.10;447714;1265;108920;-42
2022/07/08 05:24:40;;;;;;;8.90;6.00;;;;;;;18.15;64.94;99073.16;447782;1267;95973;-42
2022/07/08 05:34:48;;;;;;;7.50;5.50;;;;;;;18.25;64.76;99079.81;447718;1267;96906;-42
2022/07/08 05:55:01;;;;;;;9.20;6.80;;;;;;;18.29;65.13;99094.42;447819;1267;108828;-42
2022/07/08 06:05:09;;;;;;;8.70;7.70;;;;;;;18.35;65.18;99096.40;447775;1265;107817;-43
2022/07/08 06:15:16;;;;;;;7.00;6.20;;;;;;;18.44;64.99;99094.79;447736;1266;95935;-41
2022/07/08 06:25:23;;;;;;;13.00;4.80;;;;;;;18.50;64.94;99094.94;447752;1266;95736;-41
2022/07/08 06:35:30;;;;;;;5.10;4.40;;;;;;;18.93;64.81;99096.06;447716;1266;112501;-41
2022/07/08 06:45:37;;;;;;;6.50;4.10;;;;;;;19.20;64.73;99106.42;447866;1266;108643;-42
2022/07/08 06:55:45;;;;;;;7.90;4.60;;;;;;;19.24;64.30;99108.45;447774;1265;108797;-41
2022/07/08 07:05:52;;;;;;;5.30;4.10;;;;;;;19.36;64.08;99106.94;447774;1267;95691;-41
2022/07/08 07:15:59;;;;;;;4.80;3.70;;;;;;;19.77;63.89;99110.35;447676;1267;96402;-41
2022/07/08 07:26:07;;;;;;;6.70;4.00;;;;;;;20.44;63.56;99105.29;447769;1266;112407;-41
2022/07/08 07:36:14;;;;;;;4.80;4.30;;;;;;;21.21;62.86;99099.44;447847;1267;108769;-40
2022/07/08 07:46:21;;;;;;;5.00;4.60;;;;;;;21.84;61.93;99098.13;447738;1266;108934;-41
2022/07/08 07:56:28;;;;;;;7.00;4.50;;;;;;;22.11;61.24;99104.24;447789;1267;96099;-40
2022/07/08 08:06:35;;;;;;;6.20;4.90;;;;;;;22.50;60.46;99100.66;447781;1267;95987;-40
2022/07/08 08:16:42;;;;;;;10.30;4.60;;;;;;;22.46;59.73;99106.48;447799;1267;109517;-41
2022/07/08 08:26:50;;;;;;;3.40;3.10;;;;;;;22.84;59.13;99104.10;447829;1267;109832;-41
2022/07/08 08:36:57;;;;;;;4.70;3.50;;;;;;;22.82;57.85;99101.77;447736;1266;108786;-40
2022/07/08 08:47:11;;;;;;;4.00;3.70;;;;;;;22.71;57.79;99109.23;447670;1268;95693;-40
2022/07/08 08:57:20;;;;;;;3.70;3.40;;;;;;;22.97;57.18;99106.98;447433;1268;325265;-42
2022/07/08 09:07:27;;;;;;;4.40;3.20;;;;;;;23.70;56.58;99109.21;447535;1269;112395;-42
2022/07/08 09:17:42;;;;;;;;;;;;;;;23.33;55.70;99114.74;447699;1268;108807;-41
2022/07/08 09:27:49;;;;;;;4.00;3.70;;;;;;;22.22;55.85;99127.73;447619;1268;108873;-41
2022/07/08 09:37:57;;;;;;;4.80;4.50;;;;;;;21.74;56.81;99137.20;447598;1268;95807;-41
2022/07/08 09:48:06;;;;;;;4.40;4.00;;;;;;;21.89;57.21;99129.77;447670;1268;95824;-41
2022/07/08 09:58:14;;;;;;;4.20;3.60;;;;;;;21.39;57.58;99129.79;447578;1268;112115;-41
2022/07/08 10:08:23;;;;;;;3.30;3.10;;;;;;;20.91;58.05;99130.85;447602;1269;109710;-42
2022/07/08 10:18:36;;;;;;;4.90;2.60;;;;;;;21.28;58.33;99125.13;447702;1267;107833;-41
2022/07/08 10:28:43;;;;;;;3.10;2.70;;;;;;;21.82;57.97;99122.23;447637;1268;96121;-41
2022/07/08 10:38:50;;;;;;;;;;;;;;;22.20;57.70;99119.53;447673;1268;95724;-41
2022/07/08 10:48:57;;;;;;;;;;;;;;;22.57;57.53;99117.20;447812;1267;112807;-41
2022/07/08 10:59:22;;;;;;;3.60;1.50;;;;;;;22.32;56.50;99123.86;447815;1267;108894;-41
2022/07/08 11:09:31;;;;;;;4.90;1.80;;;;;;;21.82;55.63;99131.94;447795;1267;108847;-40
2022/07/08 11:19:40;;;;;;;3.60;2.40;;;;;;;21.79;55.06;99126.96;447772;1265;95991;-41
2022/07/08 11:29:51;;;;;;;5.90;3.10;;;;;;;22.35;54.85;99109.30;447803;1265;96079;-41
2022/07/08 11:39:57;;;;;;;7.90;2.90;;;;;;;22.33;54.56;99115.05;447773;1266;111601;-41
2022/07/08 11:50:08;;;;;;;2.60;1.10;;;;;;;22.06;54.87;99128.42;447800;1267;107814;-41
2022/07/08 12:00:15;;;;;;;5.10;2.30;;;;;;;22.07;53.71;99133.09;447822;1267;107006;-40
2022/07/08 12:10:23;;;;;;;6.10;3.20;;;;;;;22.36;53.78;99131.08;447772;1267;95698;-41
2022/07/08 12:20:35;;;;;;;7.20;2.00;;;;;;;22.69;53.62;99122.54;447728;1268;96471;-43
2022/07/08 12:30:43;;;;;;;3.20;1.60;;;;;;;22.37;53.35;99130.30;447751;1267;112564;-42
2022/07/08 12:40:50;;;;;;;5.40;1.80;;;;;;;22.16;53.45;99131.17;447865;1267;108895;-42
2022/07/08 12:50:57;;;;;;;3.60;1.70;;;;;;;22.27;53.60;99130.25;447827;1267;108823;-42
2022/07/08 13:01:05;;;;;;;5.70;1.80;;;;;;;22.47;53.69;99134.62;447607;1268;96449;-41
2022/07/08 13:11:12;;;;;;;5.30;1.30;;;;;;;22.76;51.97;99122.79;447839;1267;95683;-41
2022/07/08 13:21:18;;;;;;;6.00;1.60;;;;;;;22.69;52.08;99115.59;447790;1267;111497;-41
2022/07/08 13:31:25;;;;;;;4.30;2.00;;;;;;;22.28;52.47;99116.44;447837;1267;108807;-41
2022/07/08 13:41:31;;;;;;;;;;;;;;;22.25;52.95;99108.31;447797;1267;108892;-42
2022/07/08 13:51:38;;;;;;;6.10;1.90;;;;;;;21.57;52.86;99118.78;447759;1268;95957;-42
2022/07/08 14:01:46;;;;;;;3.90;1.90;;;;;;;20.62;53.27;99121.84;447861;1268;96012;-41
2022/07/08 14:11:53;;;;;;;5.40;2.00;;;;;;;21.09;53.40;99112.65;447786;1267;112411;-42
2022/07/08 14:22:00;;;;;;;5.70;1.90;;;;;;;21.63;52.83;99106.05;447812;1267;108886;-42
2022/07/08 14:32:08;;;;;;;5.60;2.10;;;;;;;21.89;52.59;99099.14;447685;1268;108419;-42
2022/07/08 14:42:15;;;;;;;4.20;1.90;;;;;;;21.67;52.73;99089.41;447741;1267;96572;-43
2022/07/08 14:52:22;;;;;;;6.20;1.60;;;;;;;21.42;52.16;99086.95;447830;1267;95960;-42
2022/07/08 15:12:35;;;;;;;9.20;1.40;;;;;;;22.15;50.03;99077.47;447634;1266;108838;-42
2022/07/08 15:22:43;;;;;;;2.80;1.60;;;;;;;22.49;49.65;99076.00;447867;1267;107753;-42
2022/07/08 15:32:50;;;;;;;3.00;1.30;;;;;;;22.41;48.77;99076.79;447777;1267;96612;-42
2022/07/08 15:42:57;;;;;;;6.20;1.80;;;;;;;22.19;48.49;99085.83;447876;1267;96342;-43
2022/07/08 15:53:03;;;;;;;;;;;;;;;21.92;48.34;99088.02;447903;1267;112375;-42
2022/07/08 16:03:11;;;;;;;4.10;2.10;;;;;;;21.76;48.41;99092.98;447830;1266;108784;-42
2022/07/08 16:13:18;;;;;;;4.10;1.30;;;;;;;21.62;47.46;99112.98;447863;1267;109332;-42
2022/07/08 16:23:24;;;;;;;2.80;1.80;;;;;;;21.73;47.59;99118.60;447849;1267;95685;-42
2022/07/08 16:33:32;;;;;;;8.00;2.10;;;;;;;21.70;47.52;99131.77;447826;1266;95918;-42
2022/07/08 16:43:40;;;;;;;6.20;1.70;;;;;;;21.29;47.57;99144.21;447888;1267;112537;-41
2022/07/08 16:53:48;;;;;;;7.30;1.90;;;;;;;21.02;48.01;99152.67;447848;1265;108907;-42
2022/07/08 17:03:55;;;;;;;4.40;1.60;;;;;;;20.99;48.58;99157.77;447876;1265;108706;-42
2022/07/08 17:14:01;;;;;;;5.40;2.20;;;;;;;20.72;48.78;99166.90;447706;1267;96134;-42
2022/07/08 17:24:09;;;;;;;6.10;2.00;;;;;;;20.43;49.29;99178.05;447325;1269;95720;-42
2022/07/08 17:34:16;;;;;;;5.60;1.90;;;;;;;19.99;50.22;99188.48;447739;1267;112385;-42
2022/07/08 17:44:22;;;;;;;4.60;2.20;;;;;;;19.35;51.66;99198.45;447685;1266;108820;-41
2022/07/08 17:54:30;;;;;;;7.90;3.50;;;;;;;19.03;52.78;99221.24;447670;1266;108836;-41
2022/07/08 18:14:44;;;;;;;5.30;3.50;;;;;;;17.92;56.51;99252.30;447711;1267;95713;-42
2022/07/08 18:24:51;;;;;;;19.50;9.00;;;;;;;17.33;57.97;99253.06;447783;1267;111538;-42
2022/07/08 18:34:58;;;;;;;8.10;5.20;;;;;;;17.09;58.78;99246.82;447764;1267;108845;-42
2022/07/08 18:45:06;;;;;;;9.40;5.30;;;;;;;16.86;59.77;99248.30;447631;1266;108834;-42
2022/07/08 18:55:13;;;;;;;4.70;2.80;;;;;;;16.69;60.39;99262.84;447796;1267;95755;-43
2022/07/08 19:15:26;;;;;;;5.60;2.30;;;;;;;16.76;60.79;99275.67;447625;1266;112462;-42
2022/07/08 19:25:33;;;;;;;6.30;3.60;;;;;;;16.73;61.14;99291.88;447695;1267;108958;-42
2022/07/08 19:35:41;;;;;;;6.60;3.60;;;;;;;16.66;61.78;99299.23;447743;1266;108811;-42
2022/07/08 19:45:48;;;;;;;5.20;2.10;;;;;;;16.63;62.27;99310.78;447714;1266;95817;-42
2022/07/08 20:06:01;;;;;;;5.10;2.10;;;;;;;16.67;63.12;99326.80;447760;1267;112431;-42
2022/07/08 20:16:15;;;;;;;9.30;2.80;;;;;;;16.65;63.47;99326.02;447672;1266;109241;-42
2022/07/08 20:26:21;;;;;;;6.30;2.70;;;;;;;16.56;63.68;99330.66;447757;1266;107861;-42
2022/07/08 20:36:29;;;;;;;6.00;2.10;;;;;;;16.46;63.92;99329.39;447593;1268;96485;-42
2022/07/08 20:46:36;;;;;;;4.80;2.30;;;;;;;16.44;64.12;99329.74;447796;1267;96069;-42
2022/07/08 20:56:43;;;;;;;14.00;2.40;;;;;;;16.42;64.16;99329.09;447485;1266;267477;-43
2022/07/08 21:06:51;;;;;;;9.40;2.80;;;;;;;16.38;64.52;99328.63;447821;1267;108820;-42
2022/07/08 21:16:58;;;;;;;7.40;2.90;;;;;;;16.29;64.83;99325.67;447757;1266;108672;-41
2022/07/08 21:27:06;;;;;;;11.70;2.40;;;;;;;16.27;64.87;99317.64;447692;1266;96156;-41
2022/07/08 21:37:12;;;;;;;8.80;1.60;;;;;;;16.27;65.13;99317.23;447784;1265;96146;-41
2022/07/08 21:47:19;;;;;;;12.30;3.10;;;;;;;16.31;65.26;99312.62;447723;1266;112419;-41
2022/07/08 21:57:26;;;;;;;13.70;3.00;;;;;;;16.29;65.54;99316.18;447785;1267;108806;-41
2022/07/08 22:07:33;;;;;;;3.00;2.20;;;;;;;16.22;65.50;99304.25;447783;1265;108050;-42
2022/07/08 22:17:39;;;;;;;10.10;2.20;;;;;;;16.20;65.39;99292.34;447557;1267;96073;-41
2022/07/08 22:37:52;;;;;;;3.30;2.70;;;;;;;16.18;65.34;99289.21;447787;1267;112512;-41
2022/07/08 22:47:59;;;;;;;6.60;2.70;;;;;;;16.08;65.35;99292.04;447647;1268;108816;-41
2022/07/08 22:58:06;;;;;;;5.90;2.80;;;;;;;16.03;65.13;99294.15;447761;1266;108722;-41
2022/07/08 23:08:13;;;;;;;4.30;2.00;;;;;;;16.04;64.97;99300.40;447716;1267;96567;-41
2022/07/08 23:18:20;;;;;;;9.10;2.90;;;;;;;16.01;65.04;99296.75;447848;1267;95706;-41
2022/07/08 23:28:28;;;;;;;8.00;2.10;;;;;;;15.95;64.94;99300.41;447799;1267;112302;-41
2022/07/08 23:38:35;;;;;;;6.40;2.40;;;;;;;15.88;64.84;99292.77;447807;1267;109007;-41
2022/07/08 23:48:43;;;;;;;6.10;1.90;;;;;;;15.85;64.94;99286.90;447622;1268;108888;-40
2022/07/08 23:58:50;;;;;;;10.30;2.10;;;;;;;15.86;65.00;99284.15;447504;1268;96689;-41
